sensor_id;sensor_type;location;lat;lon;timestamp;P1;durP1;ratioP1;P2;durP2;ratioP2
3755;SDS011;1893;52.526;13.360;2023-12-20T00:01:47;6.20;;;5.20;;
3755;SDS011;1893;52.526;13.360;2023-12-20T00:04:12;7.87;;;6.40;;
3755;SDS011;1893;52.526;13.360;2023-12-20T00:06:38;6.43;;;5.03;;
3755;SDS011;1893;52.526;13.360;2023-12-20T00:09:03;9.30;;;6.77;;
3755;SDS011;1893;52.526;13.360;2023-12-20T00:11:29;6.50;;;5.30;;
3755;SDS011;1893;52.526;13.360;2023-12-20T00:13:55;7.87;;;5.70;;
3755;SDS011;1893;52.526;13.360;2023-12-20T00:16:21;9.17;;;5.80;;
3755;SDS011;1893;52.526;13.360;2023-12-20T00:18:46;7.80;;;6.13;;
3755;SDS011;1893;52.526;13.360;2023-12-20T00:21:12;9.57;;;5.60;;
3755;SDS011;1893;52.526;13.360;2023-12-20T00:23:37;8.83;;;5.90;;
3755;SDS011;1893;52.526;13.360;2023-12-20T00:26:03;6.47;;;5.30;;
3755;SDS011;1893;52.526;13.360;2023-12-20T00:28:29;7.03;;;5.57;;
3755;SDS011;1893;52.526;13.360;2023-12-20T00:30:55;7.23;;;4.50;;
3755;SDS011;1893;52.526;13.360;2023-12-20T00:33:20;8.33;;;6.03;;
3755;SDS011;1893;52.526;13.360;2023-12-20T00:35:46;6.67;;;5.27;;
3755;SDS011;1893;52.526;13.360;2023-12-20T00:38:11;5.80;;;4.67;;
3755;SDS011;1893;52.526;13.360;2023-12-20T00:40:37;9.70;;;5.80;;
3755;SDS011;1893;52.526;13.360;2023-12-20T00:43:03;6.93;;;5.23;;
3755;SDS011;1893;52.526;13.360;2023-12-20T00:45:29;8.60;;;4.77;;
3755;SDS011;1893;52.526;13.360;2023-12-20T00:47:54;6.20;;;5.17;;
3755;SDS011;1893;52.526;13.360;2023-12-20T00:50:20;6.67;;;4.83;;
3755;SDS011;1893;52.526;13.360;2023-12-20T00:52:46;8.50;;;5.63;;
3755;SDS011;1893;52.526;13.360;2023-12-20T00:55:12;8.10;;;5.53;;
3755;SDS011;1893;52.526;13.360;2023-12-20T00:57:38;7.33;;;6.00;;
3755;SDS011;1893;52.526;13.360;2023-12-20T01:00:04;8.90;;;5.43;;
3755;SDS011;1893;52.526;13.360;2023-12-20T01:02:34;7.40;;;5.60;;
3755;SDS011;1893;52.526;13.360;2023-12-20T01:05:00;8.90;;;6.23;;
3755;SDS011;1893;52.526;13.360;2023-12-20T01:07:26;6.30;;;5.17;;
3755;SDS011;1893;52.526;13.360;2023-12-20T01:09:51;7.33;;;6.07;;
3755;SDS011;1893;52.526;13.360;2023-12-20T01:12:17;8.43;;;6.37;;
3755;SDS011;1893;52.526;13.360;2023-12-20T01:14:42;7.70;;;6.07;;
3755;SDS011;1893;52.526;13.360;2023-12-20T01:17:08;7.47;;;5.90;;
3755;SDS011;1893;52.526;13.360;2023-12-20T01:19:34;7.50;;;5.43;;
3755;SDS011;1893;52.526;13.360;2023-12-20T01:22:00;9.43;;;6.60;;
3755;SDS011;1893;52.526;13.360;2023-12-20T01:24:25;11.37;;;6.00;;
3755;SDS011;1893;52.526;13.360;2023-12-20T01:26:51;7.53;;;5.43;;
3755;SDS011;1893;52.526;13.360;2023-12-20T01:29:16;9.03;;;6.27;;
3755;SDS011;1893;52.526;13.360;2023-12-20T01:31:42;9.23;;;5.60;;
3755;SDS011;1893;52.526;13.360;2023-12-20T01:34:08;7.43;;;5.30;;
3755;SDS011;1893;52.526;13.360;2023-12-20T01:36:33;8.90;;;6.07;;
3755;SDS011;1893;52.526;13.360;2023-12-20T01:38:59;9.70;;;5.57;;
3755;SDS011;1893;52.526;13.360;2023-12-20T01:41:25;5.57;;;4.53;;
3755;SDS011;1893;52.526;13.360;2023-12-20T01:43:50;6.93;;;5.33;;
3755;SDS011;1893;52.526;13.360;2023-12-20T01:46:18;8.13;;;5.33;;
3755;SDS011;1893;52.526;13.360;2023-12-20T01:48:44;6.80;;;5.80;;
3755;SDS011;1893;52.526;13.360;2023-12-20T01:51:10;7.17;;;5.20;;
3755;SDS011;1893;52.526;13.360;2023-12-20T01:53:36;7.30;;;4.90;;
3755;SDS011;1893;52.526;13.360;2023-12-20T01:56:02;5.77;;;4.17;;
3755;SDS011;1893;52.526;13.360;2023-12-20T01:58:29;5.97;;;4.60;;
3755;SDS011;1893;52.526;13.360;2023-12-20T02:00:54;6.03;;;5.07;;
3755;SDS011;1893;52.526;13.360;2023-12-20T02:03:20;10.73;;;4.70;;
3755;SDS011;1893;52.526;13.360;2023-12-20T02:05:46;7.03;;;4.80;;
3755;SDS011;1893;52.526;13.360;2023-12-20T02:08:13;6.70;;;3.87;;
3755;SDS011;1893;52.526;13.360;2023-12-20T02:10:38;5.53;;;4.13;;
3755;SDS011;1893;52.526;13.360;2023-12-20T02:13:05;5.30;;;3.00;;
3755;SDS011;1893;52.526;13.360;2023-12-20T02:15:31;4.17;;;2.07;;
3755;SDS011;1893;52.526;13.360;2023-12-20T02:18:00;2.90;;;1.40;;
3755;SDS011;1893;52.526;13.360;2023-12-20T02:20:29;2.57;;;1.70;;
3755;SDS011;1893;52.526;13.360;2023-12-20T02:22:54;2.77;;;2.00;;
3755;SDS011;1893;52.526;13.360;2023-12-20T02:25:20;3.73;;;2.33;;
3755;SDS011;1893;52.526;13.360;2023-12-20T02:27:46;5.47;;;3.73;;
3755;SDS011;1893;52.526;13.360;2023-12-20T02:30:13;6.83;;;4.20;;
3755;SDS011;1893;52.526;13.360;2023-12-20T02:32:39;5.33;;;3.67;;
3755;SDS011;1893;52.526;13.360;2023-12-20T02:35:05;6.27;;;3.70;;
3755;SDS011;1893;52.526;13.360;2023-12-20T02:37:32;5.80;;;4.33;;
3755;SDS011;1893;52.526;13.360;2023-12-20T02:39:58;5.30;;;4.37;;
3755;SDS011;1893;52.526;13.360;2023-12-20T02:42:23;5.60;;;4.13;;
3755;SDS011;1893;52.526;13.360;2023-12-20T02:44:52;5.47;;;4.13;;
3755;SDS011;1893;52.526;13.360;2023-12-20T02:47:17;6.57;;;4.70;;
3755;SDS011;1893;52.526;13.360;2023-12-20T02:49:43;7.03;;;5.03;;
3755;SDS011;1893;52.526;13.360;2023-12-20T02:52:09;7.00;;;5.10;;
3755;SDS011;1893;52.526;13.360;2023-12-20T02:54:34;8.47;;;5.60;;
3755;SDS011;1893;52.526;13.360;2023-12-20T02:57:00;10.40;;;5.93;;
3755;SDS011;1893;52.526;13.360;2023-12-20T02:59:25;9.27;;;5.30;;
3755;SDS011;1893;52.526;13.360;2023-12-20T03:01:51;12.00;;;5.17;;
3755;SDS011;1893;52.526;13.360;2023-12-20T03:04:16;9.77;;;5.30;;
3755;SDS011;1893;52.526;13.360;2023-12-20T03:06:42;7.60;;;4.80;;
3755;SDS011;1893;52.526;13.360;2023-12-20T03:09:08;10.53;;;5.10;;
3755;SDS011;1893;52.526;13.360;2023-12-20T03:11:33;8.50;;;4.80;;
3755;SDS011;1893;52.526;13.360;2023-12-20T03:13:59;19.37;;;4.93;;
3755;SDS011;1893;52.526;13.360;2023-12-20T03:16:25;7.60;;;4.13;;
3755;SDS011;1893;52.526;13.360;2023-12-20T03:18:50;13.37;;;4.03;;
3755;SDS011;1893;52.526;13.360;2023-12-20T03:21:16;5.23;;;3.60;;
3755;SDS011;1893;52.526;13.360;2023-12-20T03:23:42;6.10;;;4.53;;
3755;SDS011;1893;52.526;13.360;2023-12-20T03:26:08;6.53;;;3.27;;
3755;SDS011;1893;52.526;13.360;2023-12-20T03:28:34;6.63;;;2.83;;
3755;SDS011;1893;52.526;13.360;2023-12-20T03:31:01;4.33;;;2.60;;
3755;SDS011;1893;52.526;13.360;2023-12-20T03:33:27;5.20;;;2.97;;
3755;SDS011;1893;52.526;13.360;2023-12-20T03:35:53;4.13;;;2.40;;
3755;SDS011;1893;52.526;13.360;2023-12-20T03:38:20;6.57;;;2.90;;
3755;SDS011;1893;52.526;13.360;2023-12-20T03:40:46;4.50;;;2.70;;
3755;SDS011;1893;52.526;13.360;2023-12-20T03:43:11;2.70;;;2.17;;
3755;SDS011;1893;52.526;13.360;2023-12-20T03:45:37;11.80;;;2.43;;
3755;SDS011;1893;52.526;13.360;2023-12-20T03:48:02;7.33;;;2.20;;
3755;SDS011;1893;52.526;13.360;2023-12-20T03:50:28;6.53;;;2.10;;
3755;SDS011;1893;52.526;13.360;2023-12-20T03:52:54;4.00;;;1.50;;
3755;SDS011;1893;52.526;13.360;2023-12-20T03:55:19;3.37;;;1.60;;
3755;SDS011;1893;52.526;13.360;2023-12-20T03:57:45;7.80;;;2.20;;
3755;SDS011;1893;52.526;13.360;2023-12-20T04:00:11;5.67;;;2.40;;
3755;SDS011;1893;52.526;13.360;2023-12-20T04:02:40;7.07;;;1.63;;
3755;SDS011;1893;52.526;13.360;2023-12-20T04:05:07;8.57;;;4.10;;
3755;SDS011;1893;52.526;13.360;2023-12-20T04:07:34;6.57;;;1.70;;
3755;SDS011;1893;52.526;13.360;2023-12-20T04:10:01;6.03;;;2.10;;
3755;SDS011;1893;52.526;13.360;2023-12-20T04:12:28;13.23;;;1.80;;
3755;SDS011;1893;52.526;13.360;2023-12-20T04:14:54;6.30;;;2.33;;
3755;SDS011;1893;52.526;13.360;2023-12-20T04:17:20;2.93;;;1.50;;
3755;SDS011;1893;52.526;13.360;2023-12-20T04:19:48;4.53;;;1.80;;
3755;SDS011;1893;52.526;13.360;2023-12-20T04:22:14;3.40;;;1.87;;
3755;SDS011;1893;52.526;13.360;2023-12-20T04:24:39;7.60;;;2.00;;
3755;SDS011;1893;52.526;13.360;2023-12-20T04:27:11;8.27;;;2.27;;
3755;SDS011;1893;52.526;13.360;2023-12-20T04:29:37;3.57;;;1.90;;
3755;SDS011;1893;52.526;13.360;2023-12-20T04:32:02;15.60;;;2.37;;
3755;SDS011;1893;52.526;13.360;2023-12-20T04:34:28;7.33;;;2.57;;
3755;SDS011;1893;52.526;13.360;2023-12-20T04:36:54;3.57;;;1.63;;
3755;SDS011;1893;52.526;13.360;2023-12-20T04:39:20;12.77;;;2.40;;
3755;SDS011;1893;52.526;13.360;2023-12-20T04:41:45;10.80;;;2.10;;
3755;SDS011;1893;52.526;13.360;2023-12-20T04:44:12;3.10;;;1.90;;
3755;SDS011;1893;52.526;13.360;2023-12-20T04:46:39;9.23;;;2.50;;
3755;SDS011;1893;52.526;13.360;2023-12-20T04:49:04;10.97;;;3.80;;
3755;SDS011;1893;52.526;13.360;2023-12-20T04:51:32;15.63;;;3.43;;
3755;SDS011;1893;52.526;13.360;2023-12-20T04:53:58;6.47;;;2.20;;
3755;SDS011;1893;52.526;13.360;2023-12-20T04:56:24;6.80;;;2.27;;
3755;SDS011;1893;52.526;13.360;2023-12-20T04:58:50;10.10;;;2.83;;
3755;SDS011;1893;52.526;13.360;2023-12-20T05:01:16;4.47;;;2.00;;
3755;SDS011;1893;52.526;13.360;2023-12-20T05:03:42;4.73;;;2.03;;
3755;SDS011;1893;52.526;13.360;2023-12-20T05:06:07;4.53;;;1.87;;
3755;SDS011;1893;52.526;13.360;2023-12-20T05:08:34;9.90;;;2.07;;
3755;SDS011;1893;52.526;13.360;2023-12-20T05:11:00;7.73;;;2.03;;
3755;SDS011;1893;52.526;13.360;2023-12-20T05:13:25;12.50;;;1.73;;
3755;SDS011;1893;52.526;13.360;2023-12-20T05:15:51;4.80;;;1.80;;
3755;SDS011;1893;52.526;13.360;2023-12-20T05:18:16;14.47;;;1.93;;
3755;SDS011;1893;52.526;13.360;2023-12-20T05:20:42;11.33;;;2.63;;
3755;SDS011;1893;52.526;13.360;2023-12-20T05:23:08;12.03;;;2.20;;
3755;SDS011;1893;52.526;13.360;2023-12-20T05:25:33;7.47;;;1.70;;
3755;SDS011;1893;52.526;13.360;2023-12-20T05:27:59;8.23;;;1.97;;
3755;SDS011;1893;52.526;13.360;2023-12-20T05:30:24;7.67;;;2.57;;
3755;SDS011;1893;52.526;13.360;2023-12-20T05:32:50;5.73;;;2.10;;
3755;SDS011;1893;52.526;13.360;2023-12-20T05:35:16;8.90;;;2.40;;
3755;SDS011;1893;52.526;13.360;2023-12-20T05:37:42;11.50;;;2.27;;
3755;SDS011;1893;52.526;13.360;2023-12-20T05:40:08;11.53;;;1.90;;
3755;SDS011;1893;52.526;13.360;2023-12-20T05:42:36;13.70;;;2.10;;
3755;SDS011;1893;52.526;13.360;2023-12-20T05:45:05;6.83;;;2.27;;
3755;SDS011;1893;52.526;13.360;2023-12-20T05:47:31;10.50;;;1.93;;
3755;SDS011;1893;52.526;13.360;2023-12-20T05:49:57;11.70;;;2.03;;
3755;SDS011;1893;52.526;13.360;2023-12-20T05:52:23;3.77;;;1.30;;
3755;SDS011;1893;52.526;13.360;2023-12-20T05:54:48;3.53;;;1.80;;
3755;SDS011;1893;52.526;13.360;2023-12-20T05:57:14;10.43;;;2.10;;
3755;SDS011;1893;52.526;13.360;2023-12-20T05:59:40;4.43;;;1.73;;
3755;SDS011;1893;52.526;13.360;2023-12-20T06:02:05;6.20;;;1.60;;
3755;SDS011;1893;52.526;13.360;2023-12-20T06:04:31;15.40;;;2.37;;
3755;SDS011;1893;52.526;13.360;2023-12-20T06:06:57;8.10;;;2.33;;
3755;SDS011;1893;52.526;13.360;2023-12-20T06:09:23;11.30;;;2.50;;
3755;SDS011;1893;52.526;13.360;2023-12-20T06:11:49;9.73;;;4.10;;
3755;SDS011;1893;52.526;13.360;2023-12-20T06:14:14;5.70;;;1.60;;
3755;SDS011;1893;52.526;13.360;2023-12-20T06:16:40;7.47;;;1.93;;
3755;SDS011;1893;52.526;13.360;2023-12-20T06:19:06;15.40;;;2.50;;
3755;SDS011;1893;52.526;13.360;2023-12-20T06:21:31;7.70;;;2.00;;
3755;SDS011;1893;52.526;13.360;2023-12-20T06:23:58;12.90;;;2.50;;
3755;SDS011;1893;52.526;13.360;2023-12-20T06:26:24;4.60;;;2.40;;
3755;SDS011;1893;52.526;13.360;2023-12-20T06:28:50;9.20;;;1.80;;
3755;SDS011;1893;52.526;13.360;2023-12-20T06:31:15;5.57;;;2.40;;
3755;SDS011;1893;52.526;13.360;2023-12-20T06:33:41;5.37;;;2.17;;
3755;SDS011;1893;52.526;13.360;2023-12-20T06:36:07;16.40;;;2.20;;
3755;SDS011;1893;52.526;13.360;2023-12-20T06:38:37;9.97;;;1.90;;
3755;SDS011;1893;52.526;13.360;2023-12-20T06:41:02;10.30;;;2.20;;
3755;SDS011;1893;52.526;13.360;2023-12-20T06:43:28;5.40;;;2.90;;
3755;SDS011;1893;52.526;13.360;2023-12-20T06:45:54;3.83;;;1.40;;
3755;SDS011;1893;52.526;13.360;2023-12-20T06:48:19;4.77;;;1.97;;
3755;SDS011;1893;52.526;13.360;2023-12-20T06:50:45;9.63;;;1.67;;
3755;SDS011;1893;52.526;13.360;2023-12-20T06:53:11;4.47;;;1.70;;
3755;SDS011;1893;52.526;13.360;2023-12-20T06:55:37;5.47;;;1.77;;
3755;SDS011;1893;52.526;13.360;2023-12-20T06:58:03;6.93;;;1.60;;
3755;SDS011;1893;52.526;13.360;2023-12-20T07:00:29;5.07;;;2.03;;
3755;SDS011;1893;52.526;13.360;2023-12-20T07:02:55;3.30;;;1.87;;
3755;SDS011;1893;52.526;13.360;2023-12-20T07:05:21;5.17;;;2.60;;
3755;SDS011;1893;52.526;13.360;2023-12-20T07:07:47;6.10;;;1.97;;
3755;SDS011;1893;52.526;13.360;2023-12-20T07:10:13;6.37;;;1.93;;
3755;SDS011;1893;52.526;13.360;2023-12-20T07:12:38;15.77;;;2.93;;
3755;SDS011;1893;52.526;13.360;2023-12-20T07:15:04;3.90;;;1.87;;
3755;SDS011;1893;52.526;13.360;2023-12-20T07:17:33;6.00;;;1.93;;
3755;SDS011;1893;52.526;13.360;2023-12-20T07:19:59;6.63;;;1.77;;
3755;SDS011;1893;52.526;13.360;2023-12-20T07:22:28;8.30;;;1.80;;
3755;SDS011;1893;52.526;13.360;2023-12-20T07:24:58;9.87;;;2.13;;
3755;SDS011;1893;52.526;13.360;2023-12-20T07:27:24;7.13;;;2.57;;
3755;SDS011;1893;52.526;13.360;2023-12-20T07:29:50;16.80;;;2.00;;
3755;SDS011;1893;52.526;13.360;2023-12-20T07:32:16;5.30;;;2.03;;
3755;SDS011;1893;52.526;13.360;2023-12-20T07:34:41;5.30;;;2.33;;
3755;SDS011;1893;52.526;13.360;2023-12-20T07:37:07;8.20;;;1.77;;
3755;SDS011;1893;52.526;13.360;2023-12-20T07:39:35;5.13;;;1.73;;
3755;SDS011;1893;52.526;13.360;2023-12-20T07:42:01;12.03;;;1.87;;
3755;SDS011;1893;52.526;13.360;2023-12-20T07:44:26;6.63;;;1.90;;
3755;SDS011;1893;52.526;13.360;2023-12-20T07:46:52;16.30;;;2.10;;
3755;SDS011;1893;52.526;13.360;2023-12-20T07:49:18;5.27;;;1.30;;
3755;SDS011;1893;52.526;13.360;2023-12-20T07:51:44;6.10;;;2.20;;
3755;SDS011;1893;52.526;13.360;2023-12-20T07:54:10;7.80;;;2.03;;
3755;SDS011;1893;52.526;13.360;2023-12-20T07:56:35;8.77;;;2.30;;
3755;SDS011;1893;52.526;13.360;2023-12-20T07:59:01;10.50;;;2.43;;
3755;SDS011;1893;52.526;13.360;2023-12-20T08:01:27;5.60;;;1.97;;
3755;SDS011;1893;52.526;13.360;2023-12-20T08:03:52;7.23;;;2.23;;
3755;SDS011;1893;52.526;13.360;2023-12-20T08:06:18;7.90;;;1.70;;
3755;SDS011;1893;52.526;13.360;2023-12-20T08:08:44;2.80;;;1.40;;
3755;SDS011;1893;52.526;13.360;2023-12-20T08:11:09;4.80;;;1.87;;
3755;SDS011;1893;52.526;13.360;2023-12-20T08:13:35;5.53;;;1.70;;
3755;SDS011;1893;52.526;13.360;2023-12-20T08:16:00;6.83;;;2.30;;
3755;SDS011;1893;52.526;13.360;2023-12-20T08:18:28;5.73;;;2.03;;
3755;SDS011;1893;52.526;13.360;2023-12-20T08:20:53;11.87;;;2.00;;
3755;SDS011;1893;52.526;13.360;2023-12-20T08:23:19;7.60;;;1.73;;
3755;SDS011;1893;52.526;13.360;2023-12-20T08:25:46;9.23;;;2.50;;
3755;SDS011;1893;52.526;13.360;2023-12-20T08:28:11;11.00;;;1.87;;
3755;SDS011;1893;52.526;13.360;2023-12-20T08:30:37;9.53;;;2.10;;
3755;SDS011;1893;52.526;13.360;2023-12-20T08:33:03;3.57;;;2.70;;
3755;SDS011;1893;52.526;13.360;2023-12-20T08:35:29;9.00;;;2.40;;
3755;SDS011;1893;52.526;13.360;2023-12-20T08:37:55;16.60;;;1.77;;
3755;SDS011;1893;52.526;13.360;2023-12-20T08:40:21;7.73;;;1.80;;
3755;SDS011;1893;52.526;13.360;2023-12-20T08:42:46;8.13;;;2.00;;
3755;SDS011;1893;52.526;13.360;2023-12-20T08:45:12;4.27;;;2.27;;
3755;SDS011;1893;52.526;13.360;2023-12-20T08:47:37;6.27;;;2.00;;
3755;SDS011;1893;52.526;13.360;2023-12-20T08:50:03;7.17;;;1.57;;
3755;SDS011;1893;52.526;13.360;2023-12-20T08:52:29;5.20;;;1.60;;
3755;SDS011;1893;52.526;13.360;2023-12-20T08:54:55;7.07;;;2.07;;
3755;SDS011;1893;52.526;13.360;2023-12-20T08:57:20;7.17;;;1.40;;
3755;SDS011;1893;52.526;13.360;2023-12-20T08:59:48;8.20;;;3.17;;
3755;SDS011;1893;52.526;13.360;2023-12-20T09:02:14;5.50;;;1.47;;
3755;SDS011;1893;52.526;13.360;2023-12-20T09:04:40;10.57;;;2.37;;
3755;SDS011;1893;52.526;13.360;2023-12-20T09:07:06;4.40;;;2.10;;
3755;SDS011;1893;52.526;13.360;2023-12-20T09:09:32;11.60;;;1.50;;
3755;SDS011;1893;52.526;13.360;2023-12-20T09:11:58;11.60;;;2.20;;
3755;SDS011;1893;52.526;13.360;2023-12-20T09:14:24;12.23;;;2.30;;
3755;SDS011;1893;52.526;13.360;2023-12-20T09:16:49;7.10;;;1.60;;
3755;SDS011;1893;52.526;13.360;2023-12-20T09:19:16;5.63;;;1.63;;
3755;SDS011;1893;52.526;13.360;2023-12-20T09:21:42;5.70;;;1.80;;
3755;SDS011;1893;52.526;13.360;2023-12-20T09:24:08;6.93;;;1.43;;
3755;SDS011;1893;52.526;13.360;2023-12-20T09:26:34;9.23;;;1.23;;
3755;SDS011;1893;52.526;13.360;2023-12-20T09:29:00;4.53;;;1.37;;
3755;SDS011;1893;52.526;13.360;2023-12-20T09:31:25;6.93;;;1.30;;
3755;SDS011;1893;52.526;13.360;2023-12-20T09:33:51;11.37;;;2.57;;
3755;SDS011;1893;52.526;13.360;2023-12-20T09:36:16;10.13;;;1.93;;
3755;SDS011;1893;52.526;13.360;2023-12-20T09:38:42;8.90;;;2.90;;
3755;SDS011;1893;52.526;13.360;2023-12-20T09:41:07;7.03;;;1.90;;
3755;SDS011;1893;52.526;13.360;2023-12-20T09:43:35;7.00;;;1.77;;
3755;SDS011;1893;52.526;13.360;2023-12-20T09:46:02;9.50;;;1.90;;
3755;SDS011;1893;52.526;13.360;2023-12-20T09:48:32;12.93;;;1.90;;
3755;SDS011;1893;52.526;13.360;2023-12-20T09:50:58;8.47;;;1.50;;
3755;SDS011;1893;52.526;13.360;2023-12-20T09:53:24;2.03;;;1.20;;
3755;SDS011;1893;52.526;13.360;2023-12-20T09:55:55;6.30;;;1.67;;
3755;SDS011;1893;52.526;13.360;2023-12-20T09:58:25;4.77;;;2.00;;
3755;SDS011;1893;52.526;13.360;2023-12-20T10:00:51;4.50;;;1.60;;
3755;SDS011;1893;52.526;13.360;2023-12-20T10:03:17;4.87;;;1.70;;
3755;SDS011;1893;52.526;13.360;2023-12-20T10:05:48;4.47;;;1.30;;
3755;SDS011;1893;52.526;13.360;2023-12-20T10:08:21;8.47;;;1.87;;
3755;SDS011;1893;52.526;13.360;2023-12-20T10:10:47;10.87;;;2.37;;
3755;SDS011;1893;52.526;13.360;2023-12-20T10:13:13;6.40;;;1.43;;
3755;SDS011;1893;52.526;13.360;2023-12-20T10:15:40;7.23;;;1.87;;
3755;SDS011;1893;52.526;13.360;2023-12-20T10:18:06;6.33;;;1.43;;
3755;SDS011;1893;52.526;13.360;2023-12-20T10:20:33;7.80;;;3.10;;
3755;SDS011;1893;52.526;13.360;2023-12-20T10:22:59;4.10;;;1.40;;
3755;SDS011;1893;52.526;13.360;2023-12-20T10:25:25;4.03;;;1.47;;
3755;SDS011;1893;52.526;13.360;2023-12-20T10:28:08;10.33;;;1.53;;
3755;SDS011;1893;52.526;13.360;2023-12-20T10:30:44;9.60;;;1.53;;
3755;SDS011;1893;52.526;13.360;2023-12-20T10:33:09;7.27;;;1.90;;
3755;SDS011;1893;52.526;13.360;2023-12-20T10:35:35;8.23;;;1.83;;
3755;SDS011;1893;52.526;13.360;2023-12-20T10:38:05;6.47;;;1.90;;
3755;SDS011;1893;52.526;13.360;2023-12-20T10:40:35;12.57;;;2.43;;
3755;SDS011;1893;52.526;13.360;2023-12-20T10:43:02;5.97;;;1.90;;
3755;SDS011;1893;52.526;13.360;2023-12-20T10:45:28;17.73;;;2.13;;
3755;SDS011;1893;52.526;13.360;2023-12-20T10:47:54;1.90;;;1.73;;
3755;SDS011;1893;52.526;13.360;2023-12-20T10:50:20;10.83;;;2.00;;
3755;SDS011;1893;52.526;13.360;2023-12-20T10:52:46;10.20;;;2.43;;
3755;SDS011;1893;52.526;13.360;2023-12-20T10:55:13;8.00;;;2.30;;
3755;SDS011;1893;52.526;13.360;2023-12-20T10:57:39;6.73;;;2.20;;
3755;SDS011;1893;52.526;13.360;2023-12-20T11:00:06;6.33;;;2.27;;
3755;SDS011;1893;52.526;13.360;2023-12-20T11:02:39;2.90;;;1.23;;
3755;SDS011;1893;52.526;13.360;2023-12-20T11:07:50;7.23;;;1.87;;
3755;SDS011;1893;52.526;13.360;2023-12-20T11:10:23;9.60;;;1.57;;
3755;SDS011;1893;52.526;13.360;2023-12-20T11:12:55;7.87;;;2.43;;
3755;SDS011;1893;52.526;13.360;2023-12-20T11:15:27;8.40;;;1.87;;
3755;SDS011;1893;52.526;13.360;2023-12-20T11:17:56;4.93;;;1.90;;
3755;SDS011;1893;52.526;13.360;2023-12-20T11:20:24;6.63;;;1.83;;
3755;SDS011;1893;52.526;13.360;2023-12-20T11:22:59;6.93;;;2.07;;
3755;SDS011;1893;52.526;13.360;2023-12-20T11:25:25;9.50;;;2.17;;
3755;SDS011;1893;52.526;13.360;2023-12-20T11:28:10;13.23;;;2.80;;
3755;SDS011;1893;52.526;13.360;2023-12-20T11:30:46;6.33;;;1.83;;
3755;SDS011;1893;52.526;13.360;2023-12-20T11:33:15;3.80;;;1.77;;
3755;SDS011;1893;52.526;13.360;2023-12-20T11:35:42;8.40;;;3.00;;
3755;SDS011;1893;52.526;13.360;2023-12-20T11:38:10;12.63;;;2.40;;
3755;SDS011;1893;52.526;13.360;2023-12-20T11:40:35;11.67;;;3.27;;
3755;SDS011;1893;52.526;13.360;2023-12-20T11:43:02;8.77;;;3.53;;
3755;SDS011;1893;52.526;13.360;2023-12-20T11:45:29;7.63;;;3.00;;
3755;SDS011;1893;52.526;13.360;2023-12-20T11:47:56;8.80;;;2.60;;
3755;SDS011;1893;52.526;13.360;2023-12-20T11:50:22;6.53;;;2.07;;
3755;SDS011;1893;52.526;13.360;2023-12-20T11:52:49;5.43;;;1.77;;
3755;SDS011;1893;52.526;13.360;2023-12-20T11:55:16;14.90;;;3.10;;
3755;SDS011;1893;52.526;13.360;2023-12-20T11:57:42;7.07;;;2.17;;
3755;SDS011;1893;52.526;13.360;2023-12-20T12:00:09;8.30;;;2.00;;
3755;SDS011;1893;52.526;13.360;2023-12-20T12:02:35;6.90;;;2.47;;
3755;SDS011;1893;52.526;13.360;2023-12-20T12:05:01;11.63;;;2.30;;
3755;SDS011;1893;52.526;13.360;2023-12-20T12:07:30;11.20;;;2.43;;
3755;SDS011;1893;52.526;13.360;2023-12-20T12:09:55;10.73;;;1.90;;
3755;SDS011;1893;52.526;13.360;2023-12-20T12:12:21;7.43;;;2.43;;
3755;SDS011;1893;52.526;13.360;2023-12-20T12:14:47;9.30;;;2.63;;
3755;SDS011;1893;52.526;13.360;2023-12-20T12:17:15;7.33;;;1.70;;
3755;SDS011;1893;52.526;13.360;2023-12-20T12:19:41;8.33;;;2.43;;
3755;SDS011;1893;52.526;13.360;2023-12-20T12:22:11;8.70;;;2.70;;
3755;SDS011;1893;52.526;13.360;2023-12-20T12:27:08;9.17;;;2.07;;
3755;SDS011;1893;52.526;13.360;2023-12-20T12:29:34;6.63;;;2.30;;
3755;SDS011;1893;52.526;13.360;2023-12-20T12:32:04;6.80;;;2.03;;
3755;SDS011;1893;52.526;13.360;2023-12-20T12:34:30;16.10;;;3.47;;
3755;SDS011;1893;52.526;13.360;2023-12-20T12:36:56;5.90;;;2.13;;
3755;SDS011;1893;52.526;13.360;2023-12-20T12:39:23;3.90;;;1.93;;
3755;SDS011;1893;52.526;13.360;2023-12-20T12:41:52;9.00;;;2.50;;
3755;SDS011;1893;52.526;13.360;2023-12-20T12:44:18;8.03;;;2.33;;
3755;SDS011;1893;52.526;13.360;2023-12-20T12:46:47;11.10;;;2.50;;
3755;SDS011;1893;52.526;13.360;2023-12-20T12:49:16;5.73;;;1.73;;
3755;SDS011;1893;52.526;13.360;2023-12-20T12:51:42;12.93;;;3.20;;
3755;SDS011;1893;52.526;13.360;2023-12-20T12:54:08;12.13;;;2.20;;
3755;SDS011;1893;52.526;13.360;2023-12-20T12:56:34;11.70;;;2.83;;
3755;SDS011;1893;52.526;13.360;2023-12-20T12:59:01;8.87;;;2.00;;
3755;SDS011;1893;52.526;13.360;2023-12-20T13:01:27;5.20;;;1.90;;
3755;SDS011;1893;52.526;13.360;2023-12-20T13:03:52;8.03;;;2.60;;
3755;SDS011;1893;52.526;13.360;2023-12-20T13:06:19;4.97;;;2.47;;
3755;SDS011;1893;52.526;13.360;2023-12-20T13:08:45;4.73;;;1.93;;
3755;SDS011;1893;52.526;13.360;2023-12-20T13:11:10;8.10;;;2.60;;
3755;SDS011;1893;52.526;13.360;2023-12-20T13:13:36;12.53;;;2.83;;
3755;SDS011;1893;52.526;13.360;2023-12-20T13:16:01;3.87;;;2.30;;
3755;SDS011;1893;52.526;13.360;2023-12-20T13:18:27;6.63;;;2.40;;
3755;SDS011;1893;52.526;13.360;2023-12-20T13:20:53;2.37;;;2.00;;
3755;SDS011;1893;52.526;13.360;2023-12-20T13:23:19;3.00;;;1.10;;
3755;SDS011;1893;52.526;13.360;2023-12-20T13:25:44;4.40;;;1.07;;
3755;SDS011;1893;52.526;13.360;2023-12-20T13:28:10;5.17;;;1.40;;
3755;SDS011;1893;52.526;13.360;2023-12-20T13:30:37;2.30;;;1.20;;
3755;SDS011;1893;52.526;13.360;2023-12-20T13:33:03;1.40;;;1.03;;
3755;SDS011;1893;52.526;13.360;2023-12-20T13:35:30;2.20;;;1.20;;
3755;SDS011;1893;52.526;13.360;2023-12-20T13:37:56;1.90;;;0.83;;
3755;SDS011;1893;52.526;13.360;2023-12-20T13:40:22;1.90;;;0.80;;
3755;SDS011;1893;52.526;13.360;2023-12-20T13:42:48;3.30;;;1.27;;
3755;SDS011;1893;52.526;13.360;2023-12-20T13:45:14;1.97;;;0.70;;
3755;SDS011;1893;52.526;13.360;2023-12-20T13:47:39;1.47;;;0.90;;
3755;SDS011;1893;52.526;13.360;2023-12-20T13:50:05;0.80;;;0.70;;
3755;SDS011;1893;52.526;13.360;2023-12-20T13:52:31;2.00;;;0.90;;
3755;SDS011;1893;52.526;13.360;2023-12-20T13:54:56;1.30;;;0.90;;
3755;SDS011;1893;52.526;13.360;2023-12-20T13:57:22;0.87;;;0.80;;
3755;SDS011;1893;52.526;13.360;2023-12-20T13:59:48;1.07;;;0.90;;
3755;SDS011;1893;52.526;13.360;2023-12-20T14:02:13;1.33;;;1.00;;
3755;SDS011;1893;52.526;13.360;2023-12-20T14:04:41;4.30;;;0.80;;
3755;SDS011;1893;52.526;13.360;2023-12-20T14:07:06;2.07;;;1.20;;
3755;SDS011;1893;52.526;13.360;2023-12-20T14:09:32;3.77;;;0.97;;
3755;SDS011;1893;52.526;13.360;2023-12-20T14:11:59;1.10;;;1.00;;
3755;SDS011;1893;52.526;13.360;2023-12-20T14:14:24;1.93;;;1.03;;
3755;SDS011;1893;52.526;13.360;2023-12-20T14:16:50;1.83;;;0.90;;
3755;SDS011;1893;52.526;13.360;2023-12-20T14:19:16;1.70;;;1.10;;
3755;SDS011;1893;52.526;13.360;2023-12-20T14:21:41;0.90;;;0.90;;
3755;SDS011;1893;52.526;13.360;2023-12-20T14:24:07;1.57;;;0.90;;
3755;SDS011;1893;52.526;13.360;2023-12-20T14:26:33;1.27;;;0.60;;
3755;SDS011;1893;52.526;13.360;2023-12-20T14:28:58;2.53;;;0.70;;
3755;SDS011;1893;52.526;13.360;2023-12-20T14:31:24;0.83;;;0.70;;
3755;SDS011;1893;52.526;13.360;2023-12-20T14:33:50;1.63;;;0.80;;
3755;SDS011;1893;52.526;13.360;2023-12-20T14:36:18;2.20;;;0.80;;
3755;SDS011;1893;52.526;13.360;2023-12-20T14:38:45;2.33;;;0.80;;
3755;SDS011;1893;52.526;13.360;2023-12-20T14:41:12;1.67;;;0.70;;
3755;SDS011;1893;52.526;13.360;2023-12-20T14:43:37;4.37;;;0.80;;
3755;SDS011;1893;52.526;13.360;2023-12-20T14:46:03;3.20;;;0.73;;
3755;SDS011;1893;52.526;13.360;2023-12-20T14:48:30;3.07;;;0.90;;
3755;SDS011;1893;52.526;13.360;2023-12-20T14:50:57;4.67;;;0.70;;
3755;SDS011;1893;52.526;13.360;2023-12-20T14:53:24;3.33;;;0.70;;
3755;SDS011;1893;52.526;13.360;2023-12-20T14:55:50;1.17;;;0.80;;
3755;SDS011;1893;52.526;13.360;2023-12-20T14:58:16;3.40;;;0.70;;